createdAt,value
2022-10-19T00:01:47.865Z,1021.69
2022-10-19T00:02:47.801Z,1021.66
2022-10-19T00:04:40.710Z,1021.68
2022-10-19T00:05:40.739Z,1021.64
2022-10-19T00:07:44.680Z,1021.63
2022-10-19T00:08:44.665Z,1021.68
2022-10-19T00:10:48.644Z,1021.64
2022-10-19T00:11:48.634Z,1021.63
2022-10-19T00:13:52.635Z,1021.60
2022-10-19T00:14:52.624Z,1021.64
2022-10-19T00:16:45.545Z,1021.61
2022-10-19T00:17:45.542Z,1021.62
2022-10-19T00:19:49.539Z,1021.62
2022-10-19T00:20:49.528Z,1021.62
2022-10-19T00:22:53.521Z,1021.63
2022-10-19T00:23:53.506Z,1021.61
2022-10-19T00:25:57.499Z,1021.65
2022-10-19T00:26:57.486Z,1021.66
2022-10-19T00:29:01.707Z,1021.67
2022-10-19T00:30:01.681Z,1021.67
2022-10-19T00:32:05.746Z,1021.64
2022-10-19T00:33:05.670Z,1021.69
2022-10-19T00:34:05.657Z,1021.64
2022-10-19T00:35:05.654Z,1021.68
2022-10-19T00:36:05.643Z,1021.70
2022-10-19T00:37:05.637Z,1021.68
2022-10-19T00:38:05.626Z,1021.70
2022-10-19T00:39:05.622Z,1021.72
2022-10-19T00:40:05.614Z,1021.71
2022-10-19T00:41:05.607Z,1021.72
2022-10-19T00:42:05.612Z,1021.77
2022-10-19T00:43:05.588Z,1021.79
2022-10-19T00:44:05.589Z,1021.79
2022-10-19T00:45:05.577Z,1021.76
2022-10-19T00:46:05.574Z,1021.76
2022-10-19T00:47:05.564Z,1021.81
2022-10-19T00:48:05.556Z,1021.80
2022-10-19T00:49:08.374Z,1021.78
2022-10-19T00:50:05.543Z,1021.73
2022-10-19T00:51:05.536Z,1021.76
2022-10-19T00:52:05.530Z,1021.74
2022-10-19T00:53:05.519Z,1021.77
2022-10-19T00:54:05.514Z,1021.78
2022-10-19T00:55:05.514Z,1021.80
2022-10-19T00:56:05.513Z,1021.78
2022-10-19T00:57:05.493Z,1021.81
2022-10-19T00:58:05.503Z,1021.81
2022-10-19T00:59:05.494Z,1021.77
2022-10-19T01:00:05.477Z,1021.76
2022-10-19T01:01:05.507Z,1021.74
2022-10-19T01:02:05.466Z,1021.73
2022-10-19T01:03:05.449Z,1021.73
2022-10-19T01:04:05.439Z,1021.72
2022-10-19T01:05:05.431Z,1021.71
2022-10-19T01:06:05.426Z,1021.71
2022-10-19T01:07:05.418Z,1021.70
2022-10-19T01:08:05.411Z,1021.64
2022-10-19T01:09:05.408Z,1021.63
2022-10-19T01:10:05.413Z,1021.61
2022-10-19T01:11:05.387Z,1021.62
2022-10-19T01:12:05.379Z,1021.60
2022-10-19T01:13:05.375Z,1021.62
2022-10-19T01:14:05.367Z,1021.61
2022-10-19T01:15:05.360Z,1021.62
2022-10-19T01:16:05.353Z,1021.54
2022-10-19T01:17:05.345Z,1021.59
2022-10-19T01:18:05.338Z,1021.59
2022-10-19T01:19:05.331Z,1021.54
2022-10-19T01:20:05.340Z,1021.51
2022-10-19T01:21:05.316Z,1021.50
2022-10-19T01:22:05.308Z,1021.42
2022-10-19T01:23:05.303Z,1021.41
2022-10-19T01:24:05.294Z,1021.42
2022-10-19T01:25:05.288Z,1021.45
2022-10-19T01:26:05.277Z,1021.43
2022-10-19T01:27:05.273Z,1021.45
2022-10-19T01:28:05.266Z,1021.42
2022-10-19T01:29:05.310Z,1021.46
2022-10-19T01:30:05.251Z,1021.51
2022-10-19T01:31:05.243Z,1021.52
2022-10-19T01:32:05.235Z,1021.56
2022-10-19T01:33:05.229Z,1021.57
2022-10-19T01:34:05.221Z,1021.59
2022-10-19T01:35:05.217Z,1021.52
2022-10-19T01:36:05.207Z,1021.49
2022-10-19T01:37:05.199Z,1021.51
2022-10-19T01:38:05.197Z,1021.52
2022-10-19T01:39:05.185Z,1021.52
2022-10-19T01:40:05.177Z,1021.47
2022-10-19T01:41:05.174Z,1021.50
2022-10-19T01:42:05.166Z,1021.52
2022-10-19T01:43:05.156Z,1021.53
2022-10-19T01:44:05.147Z,1021.53
2022-10-19T01:45:05.141Z,1021.54
2022-10-19T01:46:05.133Z,1021.53
2022-10-19T01:47:05.128Z,1021.49
2022-10-19T01:48:05.118Z,1021.50
2022-10-19T01:49:05.112Z,1021.50
2022-10-19T01:50:05.106Z,1021.51
2022-10-19T01:51:05.100Z,1021.54
2022-10-19T01:52:05.089Z,1021.49
2022-10-19T01:53:05.081Z,1021.52
2022-10-19T01:54:05.074Z,1021.47
2022-10-19T01:55:05.068Z,1021.49
2022-10-19T01:56:05.061Z,1021.51
2022-10-19T01:57:05.054Z,1021.42
2022-10-19T01:58:08.305Z,1021.46
2022-10-19T01:59:05.038Z,1021.47
2022-10-19T02:00:05.031Z,1021.42
2022-10-19T02:01:05.168Z,1021.44
2022-10-19T02:02:05.017Z,1021.41
2022-10-19T02:03:05.010Z,1021.37
2022-10-19T02:04:05.003Z,1021.37
2022-10-19T02:05:05.022Z,1021.36
2022-10-19T02:06:04.989Z,1021.37
2022-10-19T02:07:04.981Z,1021.38
2022-10-19T02:08:04.973Z,1021.36
2022-10-19T02:09:04.963Z,1021.36
2022-10-19T02:10:05.023Z,1021.32
2022-10-19T02:11:04.954Z,1021.35
2022-10-19T02:12:04.941Z,1021.37
2022-10-19T02:13:04.938Z,1021.36
2022-10-19T02:14:04.931Z,1021.36
2022-10-19T02:15:05.019Z,1021.34
2022-10-19T02:16:04.913Z,1021.31
2022-10-19T02:17:04.907Z,1021.33
2022-10-19T02:18:04.901Z,1021.41
2022-10-19T02:19:04.893Z,1021.37
2022-10-19T02:20:04.885Z,1021.39
2022-10-19T02:21:04.876Z,1021.37
2022-10-19T02:22:04.870Z,1021.40
2022-10-19T02:23:04.864Z,1021.44
2022-10-19T02:24:04.855Z,1021.40
2022-10-19T02:25:04.933Z,1021.42
2022-10-19T02:26:04.841Z,1021.42
2022-10-19T02:27:04.837Z,1021.45
2022-10-19T02:28:04.826Z,1021.41
2022-10-19T02:29:04.819Z,1021.43
2022-10-19T02:30:04.812Z,1021.41
2022-10-19T02:31:04.805Z,1021.41
2022-10-19T02:32:04.798Z,1021.39
2022-10-19T02:33:04.791Z,1021.41
2022-10-19T02:34:04.781Z,1021.37
2022-10-19T02:35:04.803Z,1021.39
2022-10-19T02:36:04.769Z,1021.39
2022-10-19T02:37:04.760Z,1021.40
2022-10-19T02:38:04.753Z,1021.37
2022-10-19T02:39:04.746Z,1021.37
2022-10-19T02:40:04.738Z,1021.38
2022-10-19T02:41:04.730Z,1021.39
2022-10-19T02:42:04.728Z,1021.39
2022-10-19T02:43:04.716Z,1021.37
2022-10-19T02:44:04.707Z,1021.37
2022-10-19T02:45:04.724Z,1021.34
2022-10-19T02:46:04.693Z,1021.40
2022-10-19T02:47:04.686Z,1021.38
2022-10-19T02:48:04.679Z,1021.42
2022-10-19T02:49:04.671Z,1021.40
2022-10-19T02:50:04.663Z,1021.43
2022-10-19T02:51:04.658Z,1021.43
2022-10-19T02:52:04.655Z,1021.40
2022-10-19T02:53:04.642Z,1021.39
2022-10-19T02:54:05.374Z,1021.41
2022-10-19T02:55:04.626Z,1021.44
2022-10-19T02:56:04.618Z,1021.48
2022-10-19T02:57:04.612Z,1021.43
2022-10-19T02:58:04.607Z,1021.49
2022-10-19T02:59:04.597Z,1021.47
2022-10-19T03:00:04.589Z,1021.45
2022-10-19T03:01:04.627Z,1021.44
2022-10-19T03:02:04.574Z,1021.41
2022-10-19T03:03:04.567Z,1021.42
2022-10-19T03:04:04.558Z,1021.38
2022-10-19T03:05:04.554Z,1021.41
2022-10-19T03:06:04.544Z,1021.42
2022-10-19T03:07:04.537Z,1021.40
2022-10-19T03:08:04.533Z,1021.39
2022-10-19T03:09:04.523Z,1021.44
2022-10-19T03:10:04.514Z,1021.42
2022-10-19T03:11:04.506Z,1021.43
2022-10-19T03:12:04.500Z,1021.41
2022-10-19T03:13:04.493Z,1021.42
2022-10-19T03:14:04.486Z,1021.41
2022-10-19T03:15:04.532Z,1021.40
2022-10-19T03:16:04.467Z,1021.38
2022-10-19T03:17:04.461Z,1021.46
2022-10-19T03:18:04.453Z,1021.47
2022-10-19T03:19:04.447Z,1021.50
2022-10-19T03:20:04.438Z,1021.60
2022-10-19T03:21:04.432Z,1021.62
2022-10-19T03:22:04.422Z,1021.61
2022-10-19T03:23:04.418Z,1021.63
2022-10-19T03:24:04.408Z,1021.62
2022-10-19T03:25:04.408Z,1021.58
2022-10-19T03:26:05.681Z,1021.63
2022-10-19T03:27:04.386Z,1021.60
2022-10-19T03:28:04.377Z,1021.58
2022-10-19T03:29:04.422Z,1021.57
2022-10-19T03:30:04.364Z,1021.53
2022-10-19T03:31:04.355Z,1021.55
2022-10-19T03:32:04.347Z,1021.57
2022-10-19T03:33:04.339Z,1021.61
2022-10-19T03:34:04.332Z,1021.61
2022-10-19T03:35:04.326Z,1021.58
2022-10-19T03:36:04.315Z,1021.61
2022-10-19T03:37:04.308Z,1021.61
2022-10-19T03:38:04.300Z,1021.60
2022-10-19T03:39:04.295Z,1021.61
2022-10-19T03:40:04.286Z,1021.64
2022-10-19T03:41:04.279Z,1021.62
2022-10-19T03:42:04.269Z,1021.68
2022-10-19T03:43:04.262Z,1021.67
2022-10-19T03:44:04.261Z,1021.67
2022-10-19T03:45:04.247Z,1021.68
2022-10-19T03:46:04.240Z,1021.68
2022-10-19T03:47:04.233Z,1021.71
2022-10-19T03:48:04.224Z,1021.76
2022-10-19T03:49:04.217Z,1021.76
2022-10-19T03:50:04.208Z,1021.72
2022-10-19T03:51:04.200Z,1021.72
2022-10-19T03:52:04.195Z,1021.72
2022-10-19T03:53:04.200Z,1021.76
2022-10-19T03:54:04.181Z,1021.67
2022-10-19T03:55:04.180Z,1021.71
2022-10-19T03:56:04.162Z,1021.67
2022-10-19T03:57:04.155Z,1021.67
2022-10-19T03:58:04.146Z,1021.66
2022-10-19T03:59:04.141Z,1021.70
2022-10-19T04:00:04.134Z,1021.69
2022-10-19T04:01:04.200Z,1021.74
2022-10-19T04:02:04.119Z,1021.70
2022-10-19T04:03:04.109Z,1021.76
2022-10-19T04:04:04.099Z,1021.76
2022-10-19T04:05:04.094Z,1021.75
2022-10-19T04:06:04.087Z,1021.76
2022-10-19T04:07:04.080Z,1021.73
2022-10-19T04:08:04.070Z,1021.78
2022-10-19T04:09:04.063Z,1021.77
2022-10-19T04:10:04.059Z,1021.76
2022-10-19T04:11:04.048Z,1021.70
2022-10-19T04:12:04.042Z,1021.73
2022-10-19T04:13:04.036Z,1021.80
2022-10-19T04:14:04.053Z,1021.82
2022-10-19T04:15:04.018Z,1021.82
2022-10-19T04:16:04.008Z,1021.80
2022-10-19T04:17:04.004Z,1021.83
2022-10-19T04:18:03.995Z,1021.84
2022-10-19T04:19:03.987Z,1021.84
2022-10-19T04:20:03.978Z,1021.89
2022-10-19T04:21:03.969Z,1021.92
2022-10-19T04:22:03.965Z,1021.94
2022-10-19T04:23:04.018Z,1021.94
2022-10-19T04:24:03.950Z,1021.95
2022-10-19T04:25:03.942Z,1021.93
2022-10-19T04:26:03.935Z,1021.97
2022-10-19T04:27:03.929Z,1021.97
2022-10-19T04:28:03.921Z,1021.94
2022-10-19T04:29:04.008Z,1021.97
2022-10-19T04:30:03.910Z,1021.98
2022-10-19T04:31:03.928Z,1021.96
2022-10-19T04:32:03.889Z,1022.00
2022-10-19T04:33:03.883Z,1021.99
2022-10-19T04:34:03.875Z,1022.03
2022-10-19T04:35:03.869Z,1022.01
2022-10-19T04:36:03.859Z,1022.03
2022-10-19T04:37:03.852Z,1022.03
2022-10-19T04:38:03.845Z,1022.09
2022-10-19T04:39:03.838Z,1022.03
2022-10-19T04:40:03.831Z,1022.03
2022-10-19T04:41:03.823Z,1022.07
2022-10-19T04:42:03.815Z,1022.06
2022-10-19T04:43:03.808Z,1022.10
2022-10-19T04:44:03.804Z,1022.10
2022-10-19T04:45:03.793Z,1022.10
2022-10-19T04:46:03.790Z,1022.10
2022-10-19T04:47:03.781Z,1022.15
2022-10-19T04:48:03.770Z,1022.17
2022-10-19T04:49:03.763Z,1022.17
2022-10-19T04:50:03.757Z,1022.14
2022-10-19T04:51:03.750Z,1022.17
2022-10-19T04:52:03.744Z,1022.20
2022-10-19T04:53:03.732Z,1022.22
2022-10-19T04:54:03.726Z,1022.18
2022-10-19T04:55:03.719Z,1022.19
2022-10-19T04:56:03.710Z,1022.21
2022-10-19T04:57:03.704Z,1022.22
2022-10-19T04:58:03.697Z,1022.20
2022-10-19T04:59:03.689Z,1022.17
2022-10-19T05:00:03.681Z,1022.20
2022-10-19T05:01:03.702Z,1022.24
2022-10-19T05:02:03.666Z,1022.21
2022-10-19T05:03:03.659Z,1022.23
2022-10-19T05:04:03.654Z,1022.23
2022-10-19T05:05:03.644Z,1022.31
2022-10-19T05:06:03.705Z,1022.26
2022-10-19T05:07:12.290Z,1022.25
2022-10-19T05:09:07.612Z,1022.23
2022-10-19T05:10:07.595Z,1022.29
2022-10-19T05:12:11.592Z,1022.28
2022-10-19T05:13:11.571Z,1022.26
2022-10-19T05:15:15.556Z,1022.33
2022-10-19T05:16:15.548Z,1022.32
2022-10-19T05:18:19.553Z,1022.28
2022-10-19T05:19:19.520Z,1022.27
2022-10-19T05:21:13.120Z,1022.28
2022-10-19T05:22:13.098Z,1022.31
2022-10-19T05:23:13.092Z,1022.28
2022-10-19T05:24:13.083Z,1022.30
2022-10-19T05:25:13.079Z,1022.26
2022-10-19T05:26:13.067Z,1022.27
2022-10-19T05:27:13.060Z,1022.26
2022-10-19T05:28:13.052Z,1022.27
2022-10-19T05:29:13.046Z,1022.26
2022-10-19T05:30:13.035Z,1022.22
2022-10-19T05:31:13.029Z,1022.23
2022-10-19T05:32:13.020Z,1022.25
2022-10-19T05:33:13.014Z,1022.28
2022-10-19T05:34:13.003Z,1022.31
2022-10-19T05:35:12.998Z,1022.30
2022-10-19T05:36:12.989Z,1022.32
2022-10-19T05:37:12.983Z,1022.31
2022-10-19T05:38:12.976Z,1022.34
2022-10-19T05:39:13.148Z,1022.32
2022-10-19T05:40:12.964Z,1022.33
2022-10-19T05:41:12.952Z,1022.31
2022-10-19T05:42:12.942Z,1022.36
2022-10-19T05:43:12.936Z,1022.31
2022-10-19T05:44:12.929Z,1022.32
2022-10-19T05:45:12.921Z,1022.35
2022-10-19T05:46:12.909Z,1022.39
2022-10-19T05:47:12.908Z,1022.36
2022-10-19T05:48:12.897Z,1022.36
2022-10-19T05:49:12.889Z,1022.36
2022-10-19T05:50:12.882Z,1022.36
2022-10-19T05:51:12.873Z,1022.39
2022-10-19T05:52:12.863Z,1022.39
2022-10-19T05:53:12.881Z,1022.42
2022-10-19T05:54:12.851Z,1022.41
2022-10-19T05:55:12.842Z,1022.42
2022-10-19T05:56:12.838Z,1022.41
2022-10-19T05:57:12.827Z,1022.38
2022-10-19T05:58:12.817Z,1022.40
2022-10-19T05:59:12.815Z,1022.39
2022-10-19T06:00:12.802Z,1022.39
2022-10-19T06:01:12.799Z,1022.46
2022-10-19T06:02:12.833Z,1022.42
2022-10-19T06:03:12.778Z,1022.44
2022-10-19T06:04:12.797Z,1022.41
2022-10-19T06:05:12.763Z,1022.41
2022-10-19T06:06:12.755Z,1022.44
2022-10-19T06:07:12.751Z,1022.44
2022-10-19T06:08:12.740Z,1022.45
2022-10-19T06:09:12.732Z,1022.46
2022-10-19T06:10:12.723Z,1022.45
2022-10-19T06:11:12.716Z,1022.46
2022-10-19T06:12:13.096Z,1022.47
2022-10-19T06:13:12.699Z,1022.50
2022-10-19T06:14:12.692Z,1022.50
2022-10-19T06:15:12.684Z,1022.51
2022-10-19T06:16:12.677Z,1022.50
2022-10-19T06:17:12.666Z,1022.52
2022-10-19T06:18:12.663Z,1022.51
2022-10-19T06:19:12.654Z,1022.56
2022-10-19T06:20:12.646Z,1022.54
2022-10-19T06:21:12.637Z,1022.53
2022-10-19T06:22:12.630Z,1022.54
2022-10-19T06:23:12.622Z,1022.52
2022-10-19T06:24:12.610Z,1022.55
2022-10-19T06:25:15.503Z,1022.56
2022-10-19T06:26:12.600Z,1022.56
2022-10-19T06:27:12.646Z,1022.57
2022-10-19T06:28:12.582Z,1022.59
2022-10-19T06:29:12.575Z,1022.61
2022-10-19T06:30:12.566Z,1022.63
2022-10-19T06:31:12.559Z,1022.62
2022-10-19T06:32:12.553Z,1022.64
2022-10-19T06:33:12.543Z,1022.66
2022-10-19T06:34:12.579Z,1022.62
2022-10-19T06:35:12.529Z,1022.64
2022-10-19T06:36:12.522Z,1022.64
2022-10-19T06:37:12.539Z,1022.69
2022-10-19T06:38:12.505Z,1022.67
2022-10-19T06:39:12.499Z,1022.66
2022-10-19T06:40:12.522Z,1022.66
2022-10-19T06:41:12.483Z,1022.65
2022-10-19T06:42:12.475Z,1022.65
2022-10-19T06:43:12.471Z,1022.66
2022-10-19T06:44:12.463Z,1022.69
2022-10-19T06:45:12.452Z,1022.64
2022-10-19T06:46:12.447Z,1022.61
2022-10-19T06:47:12.469Z,1022.66
2022-10-19T06:48:12.431Z,1022.65
2022-10-19T06:49:12.433Z,1022.65
2022-10-19T06:50:12.413Z,1022.67
2022-10-19T06:51:12.407Z,1022.65
2022-10-19T06:52:12.399Z,1022.71
2022-10-19T06:53:12.391Z,1022.72
2022-10-19T06:54:12.385Z,1022.75
2022-10-19T06:55:12.378Z,1022.72
2022-10-19T06:56:12.375Z,1022.75
2022-10-19T06:57:12.401Z,1022.74
2022-10-19T06:58:12.354Z,1022.73
2022-10-19T06:59:12.346Z,1022.75
2022-10-19T07:00:12.339Z,1022.73
2022-10-19T07:01:12.417Z,1022.75
2022-10-19T07:02:12.321Z,1022.76
2022-10-19T07:03:12.316Z,1022.72
2022-10-19T07:04:12.309Z,1022.70
2022-10-19T07:05:12.300Z,1022.69
2022-10-19T07:06:12.293Z,1022.67
2022-10-19T07:07:12.340Z,1022.68
2022-10-19T07:08:12.303Z,1022.69
2022-10-19T07:09:12.271Z,1022.72
2022-10-19T07:10:12.264Z,1022.74
2022-10-19T07:11:12.256Z,1022.71
2022-10-19T07:12:12.249Z,1022.75
2022-10-19T07:13:12.252Z,1022.76
2022-10-19T07:14:12.290Z,1022.79
2022-10-19T07:15:12.230Z,1022.81
2022-10-19T07:16:16.073Z,1022.82
2022-10-19T07:17:12.276Z,1022.82
2022-10-19T07:18:12.206Z,1022.83
2022-10-19T07:19:12.236Z,1022.86
2022-10-19T07:20:12.190Z,1022.88
2022-10-19T07:21:12.182Z,1022.90
2022-10-19T07:22:15.785Z,1022.91
2022-10-19T07:23:12.168Z,1022.97
2022-10-19T07:24:12.163Z,1023.01
2022-10-19T07:25:12.152Z,1022.99
2022-10-19T07:26:12.148Z,1023.00
2022-10-19T07:27:12.140Z,1023.04
2022-10-19T07:28:12.134Z,1023.07
2022-10-19T07:29:12.126Z,1023.13
2022-10-19T07:30:12.115Z,1023.11
2022-10-19T07:31:12.110Z,1023.09
2022-10-19T07:32:12.103Z,1023.09
2022-10-19T07:33:12.161Z,1023.08
2022-10-19T07:34:12.114Z,1023.11
2022-10-19T07:35:12.081Z,1023.12
2022-10-19T07:36:12.073Z,1023.11
2022-10-19T07:37:12.066Z,1023.13
2022-10-19T07:38:12.061Z,1023.14
2022-10-19T07:39:12.055Z,1023.13
2022-10-19T07:40:12.045Z,1023.13
2022-10-19T07:41:12.037Z,1023.13
2022-10-19T07:42:12.115Z,1023.10
2022-10-19T07:43:12.023Z,1023.15
2022-10-19T07:44:14.838Z,1023.15
2022-10-19T07:45:12.008Z,1023.18
2022-10-19T07:46:12.005Z,1023.16
2022-10-19T07:47:11.995Z,1023.16
2022-10-19T07:48:11.993Z,1023.17
2022-10-19T07:49:11.982Z,1023.15
2022-10-19T07:50:11.979Z,1023.20
2022-10-19T07:51:11.964Z,1023.12
2022-10-19T07:52:11.960Z,1023.17
2022-10-19T07:53:11.952Z,1023.18
2022-10-19T07:54:11.945Z,1023.23
2022-10-19T07:55:11.936Z,1023.19
2022-10-19T07:56:11.933Z,1023.28
2022-10-19T07:57:11.923Z,1023.27
2022-10-19T07:58:11.918Z,1023.24
2022-10-19T07:59:11.911Z,1023.26
2022-10-19T08:00:11.903Z,1023.30
2022-10-19T08:01:11.898Z,1023.25
2022-10-19T08:02:11.957Z,1023.27
2022-10-19T08:03:43.789Z,1023.30
2022-10-19T08:05:12.339Z,1023.28
2022-10-19T08:06:11.858Z,1023.27
2022-10-19T08:07:11.853Z,1023.27
2022-10-19T08:08:11.847Z,1023.26
2022-10-19T08:09:27.761Z,1023.27
2022-10-19T08:10:11.831Z,1023.26
2022-10-19T08:11:11.825Z,1023.31
2022-10-19T08:12:15.242Z,1023.26
2022-10-19T08:13:11.810Z,1023.25
2022-10-19T08:14:11.801Z,1023.31
2022-10-19T08:15:11.798Z,1023.26
2022-10-19T08:16:11.788Z,1023.31
2022-10-19T08:17:11.789Z,1023.30
2022-10-19T08:18:11.773Z,1023.31
2022-10-19T08:19:11.769Z,1023.31
2022-10-19T08:20:11.762Z,1023.36
2022-10-19T08:21:11.754Z,1023.34
2022-10-19T08:22:11.745Z,1023.34
2022-10-19T08:23:11.740Z,1023.35
2022-10-19T08:24:11.733Z,1023.36
2022-10-19T08:25:11.725Z,1023.36
2022-10-19T08:26:11.723Z,1023.42
2022-10-19T08:27:11.712Z,1023.43
2022-10-19T08:28:11.705Z,1023.44
2022-10-19T08:29:11.695Z,1023.44
2022-10-19T08:30:11.690Z,1023.41
2022-10-19T08:31:11.683Z,1023.39
2022-10-19T08:32:11.675Z,1023.43
2022-10-19T08:33:11.670Z,1023.42
2022-10-19T08:34:11.685Z,1023.43
2022-10-19T08:35:11.655Z,1023.44
2022-10-19T08:36:11.650Z,1023.43
2022-10-19T08:37:26.060Z,1023.44
2022-10-19T08:38:11.635Z,1023.45
2022-10-19T08:39:11.627Z,1023.47
2022-10-19T08:40:11.620Z,1023.47
2022-10-19T08:41:11.614Z,1023.49
2022-10-19T08:42:11.609Z,1023.47
2022-10-19T08:43:11.599Z,1023.50
2022-10-19T08:44:11.592Z,1023.54
2022-10-19T08:45:11.586Z,1023.52
2022-10-19T08:46:11.578Z,1023.46
2022-10-19T08:47:12.539Z,1023.49
2022-10-19T08:48:11.564Z,1023.44
2022-10-19T08:49:11.562Z,1023.46
2022-10-19T08:50:11.555Z,1023.49
2022-10-19T08:51:11.544Z,1023.47
2022-10-19T08:52:11.545Z,1023.50
2022-10-19T08:53:11.531Z,1023.46
2022-10-19T08:54:11.526Z,1023.51
2022-10-19T08:55:13.986Z,1023.48
2022-10-19T08:56:14.976Z,1023.46
2022-10-19T08:57:11.503Z,1023.49
2022-10-19T08:58:11.503Z,1023.45
2022-10-19T08:59:11.494Z,1023.47
2022-10-19T09:00:11.486Z,1023.47
2022-10-19T09:01:11.491Z,1023.45
2022-10-19T09:02:11.473Z,1023.44
2022-10-19T09:03:11.465Z,1023.46
2022-10-19T09:04:11.471Z,1023.44
2022-10-19T09:05:11.499Z,1023.43
2022-10-19T09:06:11.457Z,1023.45
2022-10-19T09:07:11.459Z,1023.48
2022-10-19T09:08:16.726Z,1023.47
2022-10-19T09:09:11.427Z,1023.50
2022-10-19T09:10:11.417Z,1023.49
2022-10-19T09:11:11.421Z,1023.56
2022-10-19T09:12:11.407Z,1023.58
2022-10-19T09:13:11.405Z,1023.60
2022-10-19T09:14:11.397Z,1023.61
2022-10-19T09:15:11.386Z,1023.58
2022-10-19T09:16:11.379Z,1023.63
2022-10-19T09:17:11.372Z,1023.61
2022-10-19T09:18:11.374Z,1023.60
2022-10-19T09:19:11.364Z,1023.60
2022-10-19T09:20:11.354Z,1023.58
2022-10-19T09:21:11.351Z,1023.58
2022-10-19T09:22:11.338Z,1023.59
2022-10-19T09:23:13.454Z,1023.63
2022-10-19T09:24:11.327Z,1023.63
2022-10-19T09:25:11.321Z,1023.60
2022-10-19T09:26:11.315Z,1023.61
2022-10-19T09:27:11.309Z,1023.66
2022-10-19T09:28:11.301Z,1023.67
2022-10-19T09:29:11.296Z,1023.68
2022-10-19T09:30:11.286Z,1023.70
2022-10-19T09:31:11.285Z,1023.70
2022-10-19T09:32:11.279Z,1023.69
2022-10-19T09:33:15.269Z,1023.71
2022-10-19T09:34:11.262Z,1023.74
2022-10-19T09:35:11.259Z,1023.67
2022-10-19T09:36:22.239Z,1023.76
2022-10-19T09:37:16.776Z,1023.80
2022-10-19T09:38:11.240Z,1023.77
2022-10-19T09:39:11.234Z,1023.79
2022-10-19T09:40:11.227Z,1023.80
2022-10-19T09:41:11.221Z,1023.83
2022-10-19T09:42:11.215Z,1023.78
2022-10-19T09:43:11.211Z,1023.78
2022-10-19T09:44:11.204Z,1023.76
2022-10-19T09:45:11.198Z,1023.81
2022-10-19T09:46:19.453Z,1023.81
2022-10-19T09:47:13.659Z,1023.76
2022-10-19T09:48:13.206Z,1023.78
2022-10-19T09:49:11.170Z,1023.80
2022-10-19T09:50:11.163Z,1023.84
2022-10-19T09:51:11.158Z,1023.84
2022-10-19T09:52:11.155Z,1023.83
2022-10-19T09:53:11.149Z,1023.84
2022-10-19T09:54:11.140Z,1023.88
2022-10-19T09:55:11.131Z,1023.90
2022-10-19T09:56:11.127Z,1023.95
2022-10-19T09:57:11.122Z,1023.95
2022-10-19T09:58:11.112Z,1023.97
2022-10-19T09:59:11.109Z,1023.89
2022-10-19T10:00:11.103Z,1023.83
2022-10-19T10:01:11.096Z,1023.85
2022-10-19T10:02:11.096Z,1023.85
2022-10-19T10:03:11.084Z,1023.89
2022-10-19T10:04:11.076Z,1023.86
2022-10-19T10:05:11.071Z,1023.87
2022-10-19T10:06:11.065Z,1023.84
2022-10-19T10:07:11.060Z,1023.89
2022-10-19T10:08:11.049Z,1023.89
2022-10-19T10:09:11.059Z,1023.89
2022-10-19T10:10:11.038Z,1023.85
2022-10-19T10:11:11.033Z,1023.85
2022-10-19T10:12:11.029Z,1023.75
2022-10-19T10:13:11.017Z,1023.88
2022-10-19T10:14:11.014Z,1023.87
2022-10-19T10:15:11.007Z,1023.92
2022-10-19T10:16:10.998Z,1023.86
2022-10-19T10:17:10.992Z,1023.83
2022-10-19T10:18:10.991Z,1023.81
2022-10-19T10:19:10.981Z,1023.79
2022-10-19T10:20:10.977Z,1023.82
2022-10-19T10:21:10.965Z,1023.80
2022-10-19T10:22:10.961Z,1023.85
2022-10-19T10:23:10.953Z,1023.89
2022-10-19T10:24:10.947Z,1023.89
2022-10-19T10:25:10.986Z,1023.79
2022-10-19T10:26:10.932Z,1023.85
2022-10-19T10:27:10.925Z,1023.83
2022-10-19T10:28:10.937Z,1023.89
2022-10-19T10:29:10.914Z,1023.88
2022-10-19T10:30:10.913Z,1023.92
2022-10-19T10:31:10.901Z,1023.95
2022-10-19T10:32:10.896Z,1023.93
2022-10-19T10:33:21.234Z,1023.94
2022-10-19T10:34:22.723Z,1023.92
2022-10-19T10:35:10.881Z,1023.95
2022-10-19T10:36:10.870Z,1023.96
2022-10-19T10:37:10.865Z,1023.99
2022-10-19T10:38:10.858Z,1023.91
2022-10-19T10:39:10.849Z,1023.99
2022-10-19T10:40:10.845Z,1024.00
2022-10-19T10:41:10.837Z,1023.94
2022-10-19T10:42:10.831Z,1023.91
2022-10-19T10:43:10.825Z,1023.87
2022-10-19T10:44:10.836Z,1023.85
2022-10-19T10:45:10.817Z,1023.85
2022-10-19T10:46:10.805Z,1023.84
2022-10-19T10:47:10.801Z,1023.87
2022-10-19T10:48:10.800Z,1023.86
2022-10-19T10:49:10.788Z,1023.89
2022-10-19T10:50:10.784Z,1023.93
2022-10-19T10:51:10.776Z,1023.94
2022-10-19T10:52:10.775Z,1023.93
2022-10-19T10:53:10.763Z,1023.91
2022-10-19T10:54:10.759Z,1023.93
2022-10-19T10:55:10.756Z,1023.94
2022-10-19T10:56:10.747Z,1023.92
2022-10-19T10:57:10.803Z,1023.93
2022-10-19T10:58:10.734Z,1023.93
2022-10-19T10:59:10.728Z,1023.94
2022-10-19T11:00:10.723Z,1023.97
2022-10-19T11:01:10.722Z,1023.98
2022-10-19T11:02:10.877Z,1023.88
2022-10-19T11:03:10.704Z,1023.91
2022-10-19T11:04:10.702Z,1023.95
2022-10-19T11:05:10.688Z,1023.89
2022-10-19T11:06:10.688Z,1023.87
2022-10-19T11:07:17.841Z,1023.89
2022-10-19T11:09:03.833Z,1023.90
2022-10-19T11:10:03.770Z,1023.92
2022-10-19T11:12:07.763Z,1023.89
2022-10-19T11:13:07.752Z,1023.92
2022-10-19T11:15:00.849Z,1023.95
2022-10-19T11:16:00.833Z,1023.93
2022-10-19T11:17:53.747Z,1023.91
2022-10-19T11:18:53.732Z,1023.88
2022-10-19T11:20:57.778Z,1023.86
2022-10-19T11:21:57.731Z,1023.90
2022-10-19T11:24:01.716Z,1023.89
2022-10-19T11:25:01.701Z,1023.90
2022-10-19T11:26:54.799Z,1023.89
2022-10-19T11:27:54.791Z,1023.84
2022-10-19T11:29:58.788Z,1023.79
2022-10-19T11:30:58.780Z,1023.78
2022-10-19T11:33:02.759Z,1023.79
2022-10-19T11:34:02.778Z,1023.85
2022-10-19T11:35:55.846Z,1023.76
2022-10-19T11:36:55.835Z,1023.80
2022-10-19T11:38:48.955Z,1023.79
2022-10-19T11:39:48.927Z,1023.80
2022-10-19T11:41:52.935Z,1023.78
2022-10-19T11:42:52.924Z,1023.74
2022-10-19T11:44:56.919Z,1023.75
2022-10-19T11:45:56.906Z,1023.77
2022-10-19T11:47:49.818Z,1023.75
2022-10-19T11:48:54.101Z,1023.65
2022-10-19T11:50:58.405Z,1023.69
2022-10-19T11:51:53.770Z,1023.68
2022-10-19T11:53:57.749Z,1023.67
2022-10-19T11:54:57.737Z,1023.67
2022-10-19T11:57:03.320Z,1023.65
2022-10-19T11:57:50.822Z,1023.67
2022-10-19T12:00:00.242Z,1023.64
2022-10-19T12:00:54.811Z,1023.61
2022-10-19T12:03:02.843Z,1023.57
2022-10-19T12:03:58.784Z,1023.58
2022-10-19T12:05:51.877Z,1023.57
2022-10-19T12:06:51.867Z,1023.63
2022-10-19T12:08:45.005Z,1023.62
2022-10-19T12:09:44.955Z,1023.63
2022-10-19T12:11:38.065Z,1023.61
2022-10-19T12:12:38.180Z,1023.57
2022-10-19T12:14:42.058Z,1023.58
2022-10-19T12:15:42.044Z,1023.56
2022-10-19T12:17:35.214Z,1023.55
2022-10-19T12:18:34.958Z,1023.53
2022-10-19T12:20:28.077Z,1023.58
2022-10-19T12:21:28.069Z,1023.57
2022-10-19T12:23:21.174Z,1023.52
2022-10-19T12:24:21.162Z,1023.49
2022-10-19T12:26:25.154Z,1023.55
2022-10-19T12:27:25.136Z,1023.55
2022-10-19T12:29:29.142Z,1023.56
2022-10-19T12:30:29.125Z,1023.57
2022-10-19T12:32:33.112Z,1023.52
2022-10-19T12:33:33.101Z,1023.54
2022-10-19T12:35:37.079Z,1023.46
2022-10-19T12:36:37.069Z,1023.53
2022-10-19T12:37:37.331Z,1023.54
2022-10-19T12:38:38.754Z,1023.51
2022-10-19T12:39:37.051Z,1023.54
2022-10-19T12:40:37.047Z,1023.55
2022-10-19T12:41:37.040Z,1023.54
2022-10-19T12:42:37.033Z,1023.49
2022-10-19T12:43:37.029Z,1023.50
2022-10-19T12:44:37.023Z,1023.45
2022-10-19T12:45:37.017Z,1023.50
2022-10-19T12:46:37.011Z,1023.49
2022-10-19T12:47:37.290Z,1023.47
2022-10-19T12:48:37.000Z,1023.52
2022-10-19T12:49:36.994Z,1023.50
2022-10-19T12:50:38.486Z,1023.46
2022-10-19T12:51:36.983Z,1023.47
2022-10-19T12:52:37.257Z,1023.47